Time;durP1;ratioP1;P1;durP2;ratioP2;P2;SDS_P1;SDS_P2;PMS_P1;PMS_P2;Temp;Humidity;BMP_temperature;BMP_pressure;BME280_temperature;BME280_humidity;BME280_pressure;Samples;Min_cycle;Max_cycle;Signal;HPM_P1;HPM_P2
2023/07/24 00:00:23;;;;;;;28.70;26.42;;;16.70;99.90;;;;;;5002008;28;20042;-76
2023/07/24 00:02:49;;;;;;;27.63;25.25;;;16.60;99.90;;;;;;5022385;28;20029;-75
2023/07/24 00:05:14;;;;;;;28.80;26.38;;;16.60;99.90;;;;;;5008436;28;20509;-75
2023/07/24 00:07:40;;;;;;;25.80;23.80;;;16.60;99.90;;;;;;5011794;28;20067;-75
2023/07/24 00:10:06;;;;;;;29.52;26.77;;;16.60;99.90;;;;;;4996256;28;20095;-74
2023/07/24 00:12:32;;;;;;;27.13;25.00;;;16.60;99.90;;;;;;4996264;28;20038;-75
2023/07/24 00:14:58;;;;;;;30.52;27.90;;;16.60;99.90;;;;;;5003043;28;20060;-75
2023/07/24 00:17:23;;;;;;;27.20;25.00;;;16.60;99.90;;;;;;5003120;28;20034;-74
2023/07/24 00:19:49;;;;;;;25.58;23.58;;;16.50;99.90;;;;;;5006541;28;20041;-75
2023/07/24 00:22:14;;;;;;;27.13;25.02;;;16.50;99.90;;;;;;5015560;28;20433;-76
2023/07/24 00:24:40;;;;;;;27.13;24.95;;;16.50;99.90;;;;;;5014594;28;20036;-76
2023/07/24 00:27:06;;;;;;;29.27;26.98;;;16.40;99.90;;;;;;5013991;28;20033;-76
2023/07/24 00:29:31;;;;;;;29.38;26.88;;;16.40;99.90;;;;;;5006416;28;20037;-76
2023/07/24 00:31:57;;;;;;;25.65;23.70;;;16.40;99.90;;;;;;4987564;28;20128;-76
2023/07/24 00:34:22;;;;;;;28.02;25.45;;;16.30;99.90;;;;;;5011272;28;20509;-76
2023/07/24 00:36:48;;;;;;;28.42;26.08;;;16.30;99.90;;;;;;5008933;28;20084;-75
2023/07/24 00:39:15;;;;;;;26.60;24.30;;;16.30;99.90;;;;;;5010980;28;20037;-76
2023/07/24 00:41:41;;;;;;;25.73;23.48;;;16.30;99.90;;;;;;5002568;28;20037;-74
2023/07/24 00:44:06;;;;;;;26.17;23.98;;;16.20;99.90;;;;;;4997315;28;20079;-75
2023/07/24 00:46:34;;;;;;;26.52;23.98;;;16.20;99.90;;;;;;5004702;28;20042;-76
2023/07/24 00:49:01;;;;;;;24.85;22.73;;;16.10;99.90;;;;;;5012399;28;20048;-76
2023/07/24 00:51:27;;;;;;;22.60;20.70;;;16.10;99.90;;;;;;4995623;28;20042;-75
2023/07/24 00:53:55;;;;;;;23.08;21.00;;;16.10;99.90;;;;;;4996484;28;20037;-76
2023/07/24 00:56:22;;;;;;;23.58;21.60;;;16.00;99.90;;;;;;5046044;28;20038;-76
2023/07/24 00:58:48;;;;;;;21.45;19.80;;;16.00;99.90;;;;;;5010534;28;20041;-76
2023/07/24 01:01:16;;;;;;;21.30;19.48;;;16.00;99.90;;;;;;4995833;28;20046;-76
2023/07/24 01:03:43;;;;;;;22.10;20.30;;;16.00;99.90;;;;;;5000969;28;20512;-76
2023/07/24 01:06:09;;;;;;;21.88;20.15;;;15.90;99.90;;;;;;5001310;28;20065;-76
2023/07/24 01:08:36;;;;;;;22.73;20.85;;;15.80;99.90;;;;;;5029757;28;20486;-76
2023/07/24 01:11:27;;;;;;;21.75;19.95;;;15.80;99.90;;;;;;5014197;28;20041;-75
2023/07/24 01:14:14;;;;;;;22.75;20.85;;;15.80;99.90;;;;;;5010081;28;20033;-76
2023/07/24 01:16:43;;;;;;;21.23;19.52;;;15.70;99.90;;;;;;5004756;28;20037;-76
2023/07/24 01:19:35;;;;;;;21.95;20.15;;;15.70;99.90;;;;;;5014497;28;20041;-76
2023/07/24 01:22:29;;;;;;;21.48;19.67;;;15.70;99.90;;;;;;4986684;28;20136;-76
2023/07/24 01:25:10;;;;;;;;;;;15.80;99.90;;;;;;4989326;28;20557;-76
2023/07/24 01:27:41;;;;;;;19.80;18.10;;;15.80;99.90;;;;;;4982395;28;20034;-76
2023/07/24 01:30:08;;;;;;;21.40;19.52;;;15.90;99.90;;;;;;4994808;28;20044;-76
2023/07/24 01:32:33;;;;;;;23.58;21.48;;;15.90;99.90;;;;;;5010277;28;20042;-76
2023/07/24 01:34:59;;;;;;;19.45;17.75;;;16.00;99.90;;;;;;4995568;28;20507;-76
2023/07/24 01:37:26;;;;;;;18.60;17.08;;;16.00;99.90;;;;;;4999841;28;20084;-76
2023/07/24 01:39:53;;;;;;;18.35;16.73;;;15.90;99.90;;;;;;4978551;28;20037;-75
2023/07/24 01:42:19;;;;;;;19.80;18.17;;;16.00;99.90;;;;;;5002696;28;20041;-76
2023/07/24 01:44:44;;;;;;;20.17;18.38;;;15.90;99.90;;;;;;5005162;28;20516;-76
2023/07/24 01:47:10;;;;;;;23.67;20.88;;;16.00;99.90;;;;;;5005927;28;20041;-75
2023/07/24 01:49:36;;;;;;;19.50;17.63;;;16.00;99.90;;;;;;5002653;28;20038;-76
2023/07/24 01:52:02;;;;;;;18.67;16.90;;;15.90;99.90;;;;;;4979512;28;20045;-76
2023/07/24 01:54:27;;;;;;;20.38;18.50;;;15.90;99.90;;;;;;5006289;28;20046;-76
2023/07/24 01:56:53;;;;;;;18.15;16.65;;;15.80;99.90;;;;;;5011526;28;20383;-76
2023/07/24 01:59:18;;;;;;;18.45;16.90;;;15.80;99.90;;;;;;5014063;28;20415;-76
2023/07/24 02:01:44;;;;;;;18.95;17.25;;;15.80;99.90;;;;;;5010093;28;20496;-75
2023/07/24 02:04:09;;;;;;;18.98;17.17;;;15.70;99.90;;;;;;5007660;28;20041;-77
2023/07/24 02:06:35;;;;;;;18.70;17.00;;;15.70;99.90;;;;;;5005512;28;20041;-75
2023/07/24 02:09:00;;;;;;;18.98;17.38;;;15.70;99.90;;;;;;4997604;28;20485;-75
2023/07/24 02:11:26;;;;;;;19.70;17.90;;;15.70;99.90;;;;;;5014172;28;20056;-76
2023/07/24 02:13:52;;;;;;;19.92;18.13;;;15.70;99.90;;;;;;5010596;28;20042;-76
2023/07/24 02:16:17;;;;;;;19.55;17.85;;;15.80;99.90;;;;;;5004396;28;20042;-76
2023/07/24 02:18:43;;;;;;;19.92;18.33;;;15.80;99.90;;;;;;5007458;28;20038;-76
2023/07/24 02:21:09;;;;;;;22.80;20.60;;;15.80;99.90;;;;;;5010563;28;20049;-76
2023/07/24 02:23:36;;;;;;;20.42;18.55;;;15.90;99.90;;;;;;5012291;28;20037;-76
2023/07/24 02:26:01;;;;;;;21.13;19.25;;;15.90;99.90;;;;;;5035043;28;20038;-75
2023/07/24 02:28:27;;;;;;;19.13;17.52;;;15.90;99.90;;;;;;5010346;28;20537;-76
2023/07/24 02:30:56;;;;;;;17.90;16.38;;;16.00;99.90;;;;;;5014330;28;20038;-76
2023/07/24 02:33:22;;;;;;;19.95;18.25;;;16.00;99.90;;;;;;5004257;28;20042;-76
2023/07/24 02:35:51;;;;;;;19.33;17.55;;;16.00;99.90;;;;;;5009810;28;20064;-75
2023/07/24 02:38:16;;;;;;;20.25;18.45;;;16.00;99.90;;;;;;4977983;28;20046;-76
2023/07/24 02:40:43;;;;;;;16.67;15.27;;;16.10;99.90;;;;;;4994013;28;20045;-76
2023/07/24 02:43:09;;;;;;;17.58;16.10;;;16.10;99.90;;;;;;4986157;28;20068;-74
2023/07/24 02:45:35;;;;;;;17.73;16.25;;;16.20;99.90;;;;;;5006864;28;20489;-75
2023/07/24 02:48:01;;;;;;;16.77;15.38;;;16.10;99.90;;;;;;4991466;28;20053;-75
2023/07/24 02:50:27;;;;;;;18.40;16.80;;;16.20;99.90;;;;;;4993515;28;20081;-75
2023/07/24 02:52:53;;;;;;;17.50;16.00;;;16.20;99.90;;;;;;5006072;28;20073;-75
2023/07/24 02:55:18;;;;;;;18.13;16.63;;;16.20;99.90;;;;;;5012328;28;20053;-75
2023/07/24 02:57:44;;;;;;;18.35;16.75;;;16.20;99.90;;;;;;5012693;28;20037;-75
2023/07/24 03:00:10;;;;;;;16.55;15.15;;;16.20;99.90;;;;;;5010852;28;20033;-74
2023/07/24 03:02:36;;;;;;;16.75;15.35;;;16.30;99.90;;;;;;5008083;28;20046;-74
2023/07/24 03:05:02;;;;;;;17.88;16.33;;;16.20;99.90;;;;;;5023380;28;20038;-74
2023/07/24 03:07:27;;;;;;;17.48;16.05;;;16.30;99.90;;;;;;5016793;28;20041;-74
2023/07/24 03:09:53;;;;;;;16.38;15.05;;;16.30;99.90;;;;;;5011141;28;20556;-75
2023/07/24 03:12:19;;;;;;;17.10;15.50;;;16.30;99.90;;;;;;5009801;28;20120;-75
2023/07/24 03:14:44;;;;;;;15.80;14.40;;;16.30;99.90;;;;;;5007922;28;20038;-74
2023/07/24 03:17:10;;;;;;;17.38;15.82;;;16.30;99.90;;;;;;5016814;28;20045;-75
2023/07/24 03:19:35;;;;;;;16.98;15.50;;;16.10;99.90;;;;;;5008956;28;20044;-74
2023/07/24 03:22:01;;;;;;;17.60;16.13;;;16.20;99.90;;;;;;5006606;28;20042;-75
2023/07/24 03:24:27;;;;;;;17.00;15.60;;;16.20;99.90;;;;;;5010215;28;20115;-75
2023/07/24 03:26:53;;;;;;;17.50;16.00;;;16.20;99.90;;;;;;5008122;28;20049;-75
2023/07/24 03:29:18;;;;;;;17.25;15.90;;;16.10;99.90;;;;;;5010802;28;20068;-75
2023/07/24 03:31:44;;;;;;;16.70;15.30;;;16.10;99.90;;;;;;5005354;28;20052;-75
2023/07/24 03:34:09;;;;;;;17.90;16.42;;;16.10;99.90;;;;;;5005785;28;20064;-75
2023/07/24 03:36:35;;;;;;;18.13;16.63;;;16.00;99.90;;;;;;5000653;28;20513;-76
2023/07/24 03:39:02;;;;;;;18.00;16.50;;;16.10;99.90;;;;;;5001041;28;20044;-74
2023/07/24 03:41:28;;;;;;;17.67;16.27;;;16.10;99.90;;;;;;4985511;28;20033;-75
2023/07/24 03:43:53;;;;;;;17.20;15.73;;;16.00;99.90;;;;;;5005777;28;20037;-75
2023/07/24 03:46:19;;;;;;;19.50;17.90;;;16.00;99.90;;;;;;5002912;28;20045;-75
2023/07/24 03:48:44;;;;;;;19.10;17.50;;;16.10;99.90;;;;;;4999642;28;20487;-75
2023/07/24 03:51:10;;;;;;;20.23;18.48;;;16.00;99.90;;;;;;5004718;28;20030;-74
2023/07/24 03:53:36;;;;;;;19.95;18.05;;;16.00;99.90;;;;;;5002801;28;20456;-75
2023/07/24 03:56:01;;;;;;;20.75;18.98;;;16.00;99.90;;;;;;5007128;28;20064;-75
2023/07/24 03:58:27;;;;;;;20.42;18.77;;;16.00;99.90;;;;;;5015672;28;20040;-74
2023/07/24 04:00:52;;;;;;;21.15;19.45;;;16.00;99.90;;;;;;5004814;28;20042;-75
2023/07/24 04:03:18;;;;;;;20.98;19.17;;;16.10;99.90;;;;;;5005553;28;20044;-76
2023/07/24 04:05:43;;;;;;;21.05;19.35;;;16.00;99.90;;;;;;5007165;28;20053;-77
2023/07/24 04:08:09;;;;;;;21.83;20.08;;;16.10;99.90;;;;;;4995157;28;20494;-75
2023/07/24 04:10:35;;;;;;;19.55;17.95;;;16.00;99.90;;;;;;5005755;28;20485;-74
2023/07/24 04:13:00;;;;;;;21.08;19.27;;;16.00;99.90;;;;;;5007211;28;20073;-75
2023/07/24 04:15:26;;;;;;;21.55;19.75;;;16.00;99.90;;;;;;5012283;28;20087;-75
2023/07/24 04:17:52;;;;;;;22.77;20.77;;;16.00;99.90;;;;;;4998549;28;20041;-75
2023/07/24 04:20:17;;;;;;;20.15;18.55;;;16.00;99.90;;;;;;4990843;28;20493;-75
2023/07/24 04:22:43;;;;;;;24.10;21.90;;;16.00;99.90;;;;;;5003780;28;20104;-75
2023/07/24 04:25:08;;;;;;;19.95;18.35;;;16.00;99.90;;;;;;5015759;28;20515;-76
2023/07/24 04:27:34;;;;;;;20.40;18.70;;;16.00;99.90;;;;;;5015408;28;20045;-75
2023/07/24 04:30:00;;;;;;;22.00;20.20;;;16.00;99.90;;;;;;5012574;28;21066;-75
2023/07/24 04:32:28;;;;;;;21.25;19.55;;;16.00;99.90;;;;;;4994123;28;20041;-75
2023/07/24 04:34:54;;;;;;;21.52;19.73;;;16.00;99.90;;;;;;5015532;28;20516;-74
2023/07/24 04:37:20;;;;;;;22.25;20.38;;;16.00;99.90;;;;;;5009157;28;20121;-74
2023/07/24 04:39:45;;;;;;;22.73;20.75;;;16.10;99.90;;;;;;5002264;28;20517;-75
2023/07/24 04:42:11;;;;;;;20.13;18.58;;;16.10;99.90;;;;;;5014611;28;20080;-76
2023/07/24 04:44:36;;;;;;;22.10;20.17;;;16.00;99.90;;;;;;4999171;28;20035;-75
2023/07/24 04:47:02;;;;;;;20.10;18.50;;;16.00;99.90;;;;;;5015086;28;20615;-75
2023/07/24 04:49:32;;;;;;;23.25;21.25;;;16.10;99.90;;;;;;5014285;28;20080;-74
2023/07/24 04:51:58;;;;;;;21.92;20.02;;;16.10;99.90;;;;;;5006405;28;20509;-76
2023/07/24 04:54:24;;;;;;;24.05;21.95;;;16.00;99.90;;;;;;5003640;28;20049;-75
2023/07/24 04:56:50;;;;;;;21.90;20.13;;;16.10;99.90;;;;;;5006839;28;20045;-75
2023/07/24 04:59:16;;;;;;;21.38;19.63;;;16.00;99.90;;;;;;5009719;28;20120;-75
2023/07/24 05:01:42;;;;;;;23.05;21.15;;;16.10;99.90;;;;;;5009865;28;20125;-75
2023/07/24 05:04:07;;;;;;;21.10;19.30;;;16.10;99.90;;;;;;5011523;28;20029;-74
2023/07/24 05:06:35;;;;;;;21.98;20.23;;;16.10;99.90;;;;;;4999308;28;20041;-75
2023/07/24 05:09:01;;;;;;;22.85;21.05;;;16.10;99.90;;;;;;4995065;28;20061;-75
2023/07/24 05:11:26;;;;;;;23.73;21.80;;;16.10;99.90;;;;;;5006660;28;20045;-75
2023/07/24 05:13:52;;;;;;;20.85;19.17;;;16.20;99.90;;;;;;5011248;28;20409;-74
2023/07/24 05:16:17;;;;;;;24.17;22.08;;;16.30;99.90;;;;;;5000758;28;20045;-75
2023/07/24 05:18:43;;;;;;;20.08;18.52;;;16.30;99.90;;;;;;5025054;28;20505;-75
2023/07/24 05:21:09;;;;;;;19.30;17.60;;;16.40;99.90;;;;;;5019746;28;20038;-76
2023/07/24 05:23:34;;;;;;;20.58;18.88;;;16.40;99.90;;;;;;5003157;28;20548;-75
2023/07/24 05:26:01;;;;;;;21.60;19.80;;;16.50;99.90;;;;;;5011759;28;20049;-75
2023/07/24 05:28:28;;;;;;;20.45;18.75;;;16.50;99.90;;;;;;5009704;28;20037;-76
2023/07/24 05:30:53;;;;;;;19.30;17.80;;;16.60;99.90;;;;;;5039404;28;20120;-73
2023/07/24 05:33:19;;;;;;;21.58;19.88;;;16.70;99.90;;;;;;5010476;28;20511;-75
2023/07/24 05:35:45;;;;;;;22.33;20.40;;;16.70;99.90;;;;;;5011427;28;20041;-75
2023/07/24 05:38:10;;;;;;;19.60;18.00;;;16.80;99.90;;;;;;5005958;28;20069;-74
2023/07/24 05:40:36;;;;;;;20.42;18.63;;;16.90;99.90;;;;;;5014566;28;20037;-75
2023/07/24 05:43:01;;;;;;;20.23;18.63;;;16.90;99.90;;;;;;5014226;28;20512;-74
2023/07/24 05:45:27;;;;;;;21.55;19.65;;;16.90;99.90;;;;;;5012883;28;20069;-75
2023/07/24 05:47:53;;;;;;;21.55;19.60;;;16.90;99.90;;;;;;5009130;28;20034;-75
2023/07/24 05:50:19;;;;;;;20.30;18.60;;;16.90;99.90;;;;;;5007760;28;20120;-74
2023/07/24 05:52:44;;;;;;;20.95;19.08;;;17.00;99.90;;;;;;5008249;28;20037;-75
2023/07/24 05:55:11;;;;;;;21.35;19.55;;;17.00;99.90;;;;;;4989778;28;20482;-75
2023/07/24 05:57:36;;;;;;;20.50;18.73;;;17.00;99.90;;;;;;4998372;28;20124;-74
2023/07/24 06:00:06;;;;;;;21.05;18.98;;;17.00;99.90;;;;;;5004318;28;20505;-74
2023/07/24 06:02:32;;;;;;;19.65;17.95;;;16.90;99.90;;;;;;5009643;28;20045;-74
2023/07/24 06:04:58;;;;;;;21.00;19.00;;;16.90;99.90;;;;;;5010069;28;20382;-74
2023/07/24 06:07:23;;;;;;;20.63;18.83;;;16.90;99.90;;;;;;5001849;28;20514;-75
2023/07/24 06:09:49;;;;;;;21.50;19.63;;;16.90;99.90;;;;;;5005478;28;20048;-75
2023/07/24 06:12:15;;;;;;;21.23;19.27;;;17.00;99.90;;;;;;5009348;28;20048;-75
2023/07/24 06:14:40;;;;;;;19.73;17.95;;;17.20;99.90;;;;;;5006554;28;20049;-75
2023/07/24 06:17:06;;;;;;;19.00;17.30;;;17.20;99.90;;;;;;5016261;28;20044;-76
2023/07/24 06:19:32;;;;;;;18.75;17.05;;;17.30;99.90;;;;;;4992652;28;20041;-77
2023/07/24 06:21:57;;;;;;;18.88;16.45;;;17.40;99.90;;;;;;4995063;28;20513;-75
2023/07/24 06:24:23;;;;;;;18.73;17.08;;;17.60;99.90;;;;;;5012027;28;20044;-75
2023/07/24 06:26:52;;;;;;;18.33;16.73;;;17.60;99.90;;;;;;5011282;28;20048;-75
2023/07/24 06:29:18;;;;;;;19.33;17.60;;;17.70;99.90;;;;;;5007270;28;20532;-75
2023/07/24 06:31:43;;;;;;;17.00;15.55;;;17.90;99.90;;;;;;5015149;28;20053;-75
2023/07/24 06:34:09;;;;;;;17.00;15.60;;;18.00;99.90;;;;;;5017924;28;20493;-75
2023/07/24 06:36:34;;;;;;;17.80;16.30;;;18.10;99.90;;;;;;5015561;28;20048;-75
2023/07/24 06:39:00;;;;;;;17.95;16.30;;;18.20;99.90;;;;;;5012686;28;20053;-76
2023/07/24 06:41:26;;;;;;;17.77;16.17;;;18.30;99.90;;;;;;5017490;28;20124;-75
2023/07/24 06:43:51;;;;;;;15.77;14.48;;;18.40;99.90;;;;;;5017449;28;20034;-75
2023/07/24 06:46:17;;;;;;;18.80;16.85;;;18.50;99.90;;;;;;5017357;28;20096;-75
2023/07/24 06:48:43;;;;;;;18.83;16.92;;;18.60;99.90;;;;;;5017427;28;20041;-75
2023/07/24 06:51:08;;;;;;;16.92;15.43;;;18.70;99.90;;;;;;5016111;28;20087;-76
2023/07/24 06:53:34;;;;;;;17.00;15.45;;;18.80;99.90;;;;;;5016594;28;20072;-74
2023/07/24 06:56:00;;;;;;;16.73;15.20;;;18.80;99.90;;;;;;5017166;28;20041;-75
2023/07/24 06:58:25;;;;;;;17.00;15.32;;;18.80;99.90;;;;;;5017564;28;20034;-75
2023/07/24 07:00:51;;;;;;;17.42;15.65;;;18.80;99.90;;;;;;5017348;28;20069;-75
2023/07/24 07:03:16;;;;;;;16.30;14.70;;;18.90;99.90;;;;;;5017411;28;20033;-75
2023/07/24 07:05:42;;;;;;;16.45;14.70;;;18.90;99.90;;;;;;5016257;28;20087;-75
2023/07/24 07:08:07;;;;;;;15.75;14.25;;;18.90;99.90;;;;;;5016408;28;20797;-75
2023/07/24 07:10:33;;;;;;;17.50;15.73;;;19.00;99.90;;;;;;5008788;28;20095;-75
2023/07/24 07:12:59;;;;;;;16.60;15.10;;;19.00;99.90;;;;;;5016227;28;20099;-75
2023/07/24 07:15:24;;;;;;;17.05;15.40;;;19.00;99.90;;;;;;5000898;28;20134;-75
2023/07/24 07:17:50;;;;;;;17.52;15.93;;;19.00;99.90;;;;;;5016767;28;20041;-75
2023/07/24 07:20:16;;;;;;;18.33;16.63;;;19.00;99.90;;;;;;5016375;28;20124;-75
2023/07/24 07:22:42;;;;;;;18.85;17.17;;;19.00;99.90;;;;;;5016606;28;20504;-75
2023/07/24 07:25:07;;;;;;;17.73;16.23;;;19.00;99.90;;;;;;5016770;28;20037;-75
2023/07/24 07:27:33;;;;;;;19.98;18.15;;;19.00;99.90;;;;;;5016838;28;20042;-75
2023/07/24 07:29:59;;;;;;;18.52;16.73;;;19.00;99.90;;;;;;5014699;28;20501;-75
2023/07/24 07:32:24;;;;;;;18.50;16.73;;;19.00;99.90;;;;;;5009361;28;20048;-75
2023/07/24 07:34:50;;;;;;;15.88;14.38;;;19.00;99.90;;;;;;5016351;28;20037;-75
2023/07/24 07:37:16;;;;;;;16.27;14.63;;;19.10;99.90;;;;;;5016239;28;20488;-74
2023/07/24 07:39:41;;;;;;;15.60;13.80;;;19.10;99.90;;;;;;5016982;28;20046;-75
2023/07/24 07:42:07;;;;;;;16.85;15.25;;;19.20;99.90;;;;;;4999435;28;20121;-75
2023/07/24 07:44:33;;;;;;;18.20;15.38;;;19.20;99.90;;;;;;5016721;28;20037;-75
2023/07/24 07:46:58;;;;;;;17.83;16.17;;;19.30;99.90;;;;;;5016169;28;20053;-75
2023/07/24 07:49:24;;;;;;;16.30;14.80;;;19.40;99.90;;;;;;5016530;28;20053;-75
2023/07/24 07:51:49;;;;;;;16.70;14.32;;;19.60;99.90;;;;;;5016594;28;20333;-75
2023/07/24 07:54:15;;;;;;;15.55;14.05;;;19.80;99.90;;;;;;5015659;28;20045;-75
2023/07/24 07:56:41;;;;;;;15.50;13.13;;;19.90;99.90;;;;;;5004093;28;20386;-75
2023/07/24 07:59:07;;;;;;;15.02;13.43;;;20.00;99.90;;;;;;5016451;28;20120;-75
2023/07/24 08:01:33;;;;;;;13.10;11.70;;;20.00;99.90;;;;;;5016223;28;20591;-75
2023/07/24 08:03:58;;;;;;;13.35;11.95;;;20.10;99.90;;;;;;5016001;28;20456;-75
2023/07/24 08:06:24;;;;;;;14.10;12.80;;;20.40;99.90;;;;;;5016050;28;20137;-75
2023/07/24 08:08:50;;;;;;;14.18;12.77;;;20.60;99.90;;;;;;5016024;28;20064;-75
2023/07/24 08:11:15;;;;;;;13.25;12.07;;;20.90;99.90;;;;;;5014884;28;20037;-75
2023/07/24 08:13:41;;;;;;;14.85;13.32;;;21.00;99.90;;;;;;5015816;28;20497;-75
2023/07/24 08:16:18;;;;;;;13.32;12.02;;;21.30;99.90;;;;;;5015745;28;20041;-76
2023/07/24 08:18:45;;;;;;;13.93;12.52;;;21.40;99.90;;;;;;5016066;28;20037;-75
2023/07/24 08:21:11;;;;;;;14.80;13.30;;;21.40;99.90;;;;;;5015716;28;20041;-76
2023/07/24 08:23:37;;;;;;;14.00;12.70;;;21.30;99.90;;;;;;5015866;28;20049;-76
2023/07/24 08:26:02;;;;;;;14.30;12.88;;;21.30;99.90;;;;;;5011006;28;20068;-75
2023/07/24 08:28:28;;;;;;;13.93;12.55;;;21.20;99.90;;;;;;5010597;28;20504;-75
2023/07/24 08:30:58;;;;;;;14.43;12.85;;;21.10;99.90;;;;;;5015575;28;20087;-75
2023/07/24 08:33:24;;;;;;;13.40;12.07;;;20.90;99.90;;;;;;4999115;28;20131;-75
2023/07/24 08:36:04;;;;;;;12.57;11.48;;;20.70;99.90;;;;;;5004006;28;20128;-75
2023/07/24 08:38:30;;;;;;;14.05;12.65;;;20.60;99.90;;;;;;5015338;28;20469;-76
2023/07/24 08:41:06;;;;;;;13.80;12.45;;;20.50;99.90;;;;;;5015746;28;20049;-75
2023/07/24 08:43:33;;;;;;;14.23;12.77;;;20.60;99.90;;;;;;5015814;28;20033;-75
2023/07/24 08:46:00;;;;;;;15.02;11.43;;;20.90;99.90;;;;;;5015258;28;20049;-75
2023/07/24 08:48:35;;;;;;;12.13;10.82;;;21.30;99.90;;;;;;5014401;28;20520;-75
2023/07/24 08:51:02;;;;;;;14.45;10.95;;;21.60;99.90;;;;;;5006406;28;20049;-75
2023/07/24 08:53:30;;;;;;;13.85;11.00;;;21.70;99.90;;;;;;5015013;28;20099;-76
2023/07/24 08:55:56;;;;;;;12.65;11.15;;;21.90;99.90;;;;;;5014573;28;20046;-76
2023/07/24 08:58:22;;;;;;;12.63;11.35;;;22.20;99.90;;;;;;5015094;28;20090;-76
2023/07/24 09:00:48;;;;;;;12.63;11.20;;;22.40;99.90;;;;;;5010647;28;20038;-75
2023/07/24 09:03:14;;;;;;;12.82;10.93;;;22.40;99.90;;;;;;5006553;28;20033;-75
2023/07/24 09:05:39;;;;;;;12.77;11.00;;;22.30;99.90;;;;;;5014934;28;20553;-76
2023/07/24 09:08:05;;;;;;;12.20;10.98;;;22.30;99.90;;;;;;5014694;28;20493;-76
2023/07/24 09:10:30;;;;;;;11.95;10.60;;;22.20;99.90;;;;;;5014773;28;20041;-75
2023/07/24 09:12:56;;;;;;;12.27;11.07;;;22.20;99.90;;;;;;5014812;28;20037;-75
2023/07/24 09:15:22;;;;;;;13.20;11.70;;;22.30;99.90;;;;;;5013542;28;20481;-75
2023/07/24 09:17:49;;;;;;;12.32;11.05;;;22.20;99.90;;;;;;5014354;28;20383;-75
2023/07/24 09:20:15;;;;;;;18.23;11.90;;;22.00;99.90;;;;;;5014679;28;20041;-75
2023/07/24 09:22:52;;;;;;;14.23;11.75;;;21.90;99.90;;;;;;4998324;28;20099;-75
2023/07/24 09:25:18;;;;;;;13.05;10.85;;;21.90;99.90;;;;;;5015020;28;20048;-75
2023/07/24 09:27:44;;;;;;;12.55;10.40;;;22.00;99.90;;;;;;5014744;28;20115;-75
2023/07/24 09:30:14;;;;;;;12.20;10.90;;;22.10;99.90;;;;;;5010006;28;20084;-75
2023/07/24 09:32:40;;;;;;;12.25;11.05;;;22.30;99.90;;;;;;5006228;28;20070;-75
2023/07/24 09:35:17;;;;;;;13.10;11.35;;;22.50;99.90;;;;;;4978502;28;20077;-75
2023/07/24 09:37:44;;;;;;;12.02;10.82;;;22.80;99.90;;;;;;4994461;28;20041;-76
2023/07/24 09:40:10;;;;;;;12.23;11.02;;;22.70;99.90;;;;;;4998214;28;20088;-75
2023/07/24 09:42:37;;;;;;;10.32;9.23;;;23.00;99.90;;;;;;5010081;28;20033;-76
2023/07/24 09:45:04;;;;;;;11.18;9.35;;;23.50;99.90;;;;;;5014281;28;20037;-75
2023/07/24 09:47:34;;;;;;;10.52;9.48;;;24.00;99.90;;;;;;5013903;28;20083;-75
2023/07/24 09:50:02;;;;;;;11.50;8.73;;;24.60;99.90;;;;;;5005183;28;20119;-76
2023/07/24 09:52:30;;;;;;;9.07;8.18;;;24.80;99.90;;;;;;5013996;28;20041;-75
2023/07/24 09:55:07;;;;;;;10.43;8.20;;;25.00;99.90;;;;;;5014198;28;20144;-76
2023/07/24 09:57:35;;;;;;;9.25;7.68;;;25.30;99.90;;;;;;5013892;28;20056;-75
2023/07/24 10:00:01;;;;;;;8.63;7.70;;;25.60;99.90;;;;;;5014388;28;20053;-75
2023/07/24 10:02:28;;;;;;;9.93;8.48;;;25.80;99.90;;;;;;5013860;28;20037;-75
2023/07/24 10:04:55;;;;;;;8.90;8.10;;;26.00;99.90;;;;;;5010336;28;20049;-76
2023/07/24 10:07:22;;;;;;;8.00;7.30;;;26.20;99.90;;;;;;5000961;28;20446;-75
2023/07/24 10:09:52;;;;;;;8.35;7.22;;;26.20;99.90;;;;;;5011384;28;20041;-75
2023/07/24 10:12:19;;;;;;;8.27;7.38;;;26.10;99.90;;;;;;5013838;28;20041;-75
2023/07/24 10:14:46;;;;;;;10.23;7.40;;;25.60;99.90;;;;;;5013862;28;20073;-75
2023/07/24 10:17:11;;;;;;;8.60;7.00;;;25.20;99.90;;;;;;5012665;28;20217;-75
2023/07/24 10:19:41;;;;;;;10.13;7.63;;;24.90;99.90;;;;;;4989347;28;20438;-75
2023/07/24 10:22:08;;;;;;;8.63;7.82;;;24.50;99.90;;;;;;5010967;28;20038;-75
2023/07/24 10:24:34;;;;;;;9.20;7.78;;;24.10;99.90;;;;;;5010789;28;20083;-75
2023/07/24 10:26:59;;;;;;;8.07;7.10;;;23.90;99.90;;;;;;5010304;28;20041;-75
2023/07/24 10:29:28;;;;;;;7.93;7.13;;;23.90;99.90;;;;;;4978238;28;20042;-75
2023/07/24 10:31:54;;;;;;;8.10;7.13;;;24.20;99.90;;;;;;4996116;28;20413;-75
2023/07/24 10:34:20;;;;;;;8.43;6.93;;;24.70;99.90;;;;;;5038432;28;20482;-75
2023/07/24 10:36:46;;;;;;;8.13;7.32;;;25.00;99.90;;;;;;4997110;28;20041;-75
2023/07/24 10:39:18;;;;;;;8.32;7.05;;;24.90;99.90;;;;;;5013915;28;20038;-75
2023/07/24 10:41:46;;;;;;;8.30;7.50;;;24.80;99.90;;;;;;5012987;28;20046;-75
2023/07/24 10:44:11;;;;;;;9.05;7.35;;;24.70;99.90;;;;;;5001791;28;20398;-75
2023/07/24 10:46:39;;;;;;;8.90;8.00;;;24.80;99.90;;;;;;5005135;28;20037;-76
2023/07/24 10:49:05;;;;;;;9.70;7.22;;;24.80;99.90;;;;;;5031141;28;20034;-75
2023/07/24 10:51:34;;;;;;;7.43;6.65;;;24.70;99.90;;;;;;5013520;28;20107;-75
2023/07/24 10:54:01;;;;;;;9.93;7.63;;;24.50;99.90;;;;;;5013545;28;20051;-76
2023/07/24 10:56:27;;;;;;;9.05;7.97;;;24.30;99.90;;;;;;5013296;28;20037;-75
2023/07/24 10:58:53;;;;;;;9.45;8.32;;;24.20;99.90;;;;;;5004223;28;20387;-75
2023/07/24 11:01:19;;;;;;;9.57;8.32;;;24.00;99.90;;;;;;5013344;28;20092;-75
2023/07/24 11:03:45;;;;;;;9.07;8.18;;;23.90;99.90;;;;;;5012640;28;20123;-75
2023/07/24 11:06:18;;;;;;;9.48;8.48;;;23.70;99.90;;;;;;5013396;28;20556;-76
2023/07/24 11:08:59;;;;;;;9.45;8.48;;;23.70;99.90;;;;;;5004344;28;20042;-75
2023/07/24 11:11:32;;;;;;;9.82;8.07;;;23.70;99.90;;;;;;5007703;28;20045;-75
2023/07/24 11:13:57;;;;;;;8.95;7.82;;;23.80;99.90;;;;;;5013249;28;20048;-75
2023/07/24 11:16:24;;;;;;;9.63;7.80;;;23.90;99.90;;;;;;4996553;28;20045;-76
2023/07/24 11:18:55;;;;;;;9.05;8.10;;;23.90;99.90;;;;;;5016405;28;20505;-75
2023/07/24 11:21:22;;;;;;;8.77;7.00;;;23.90;99.90;;;;;;5016544;28;20065;-76
2023/07/24 11:23:50;;;;;;;8.80;7.55;;;24.00;99.90;;;;;;5041419;28;20127;-75
2023/07/24 11:26:18;;;;;;;10.32;7.18;;;24.10;99.90;;;;;;5000564;28;20045;-75
2023/07/24 11:28:43;;;;;;;8.48;7.47;;;24.40;99.90;;;;;;5017095;28;20140;-76
2023/07/24 11:31:09;;;;;;;9.90;7.45;;;24.50;99.90;;;;;;5007462;28;20120;-75
2023/07/24 11:33:35;;;;;;;8.30;7.00;;;24.70;99.90;;;;;;5016724;28;20080;-76
2023/07/24 11:36:01;;;;;;;8.27;7.32;;;24.90;99.90;;;;;;5016420;28;20053;-75
2023/07/24 11:38:27;;;;;;;10.85;6.80;;;24.90;99.90;;;;;;5007907;28;20037;-75
2023/07/24 11:40:54;;;;;;;7.97;7.13;;;25.00;99.90;;;;;;5007572;28;20038;-75
2023/07/24 11:43:22;;;;;;;7.78;6.80;;;25.10;99.90;;;;;;5016559;28;20033;-75
2023/07/24 11:45:52;;;;;;;8.40;6.72;;;25.40;99.90;;;;;;5016314;28;20045;-75
2023/07/24 11:48:18;;;;;;;8.73;6.82;;;25.70;99.90;;;;;;5015406;28;20412;-75
2023/07/24 11:50:53;;;;;;;9.38;6.15;;;25.70;99.90;;;;;;5016465;28;20044;-75
2023/07/24 11:53:29;;;;;;;6.75;6.03;;;25.70;99.90;;;;;;5007404;28;20265;-75
2023/07/24 11:55:59;;;;;;;9.73;6.78;;;25.70;99.90;;;;;;5016141;28;20076;-75
2023/07/24 11:58:29;;;;;;;10.85;7.10;;;26.00;99.90;;;;;;5000074;28;20041;-76
2023/07/24 12:00:56;;;;;;;8.15;6.65;;;26.60;99.90;;;;;;5016106;28;20033;-75
2023/07/24 12:03:24;;;;;;;7.05;6.07;;;27.10;99.90;;;;;;5006741;28;20041;-75
2023/07/24 12:05:50;;;;;;;8.32;6.57;;;27.30;99.90;;;;;;5008261;28;20056;-76
2023/07/24 12:08:21;;;;;;;10.60;5.80;;;27.40;99.90;;;;;;5008548;28;20102;-75
2023/07/24 12:10:46;;;;;;;6.93;6.22;;;27.60;99.90;;;;;;5005217;28;20041;-75
2023/07/24 12:13:12;;;;;;;8.45;6.03;;;27.30;99.90;;;;;;5015906;28;20037;-76
2023/07/24 12:15:38;;;;;;;8.18;6.70;;;26.80;99.90;;;;;;5014707;28;20060;-75
2023/07/24 12:18:04;;;;;;;8.45;6.97;;;26.40;99.90;;;;;;5036021;28;20038;-75
2023/07/24 12:20:30;;;;;;;8.27;7.05;;;26.50;99.90;;;;;;5010916;28;20041;-76
2023/07/24 12:22:56;;;;;;;9.90;7.15;;;26.80;99.90;;;;;;5015748;28;20041;-75
2023/07/24 12:25:22;;;;;;;9.27;7.32;;;27.10;99.90;;;;;;5015707;28;20444;-76
2023/07/24 12:27:48;;;;;;;8.68;7.10;;;27.10;99.90;;;;;;5015454;28;20047;-76